Hauptseite
METAR-TAF:

METAR-TAF

Flughäfen :

Cervia, Italien

Militärflugplatz Cervia

Breite: 44-13N, Länge: 012-18E, Höhe: 6 m

Beobachtung

Neuester Wetterbericht von vor 1 Stunde und 6 Minuten, um 18:55 UTC
Wind 3 kt aus West
Temperatur 5°C
Luftfeuchtigkeit 93%
Luftdruck 1014 hPa
Sichtweite 10 km oder mehr
Aufgelockert bewölkt in der Höhe von 4500 ft

METAR: LIPC 221855Z 27003KT 9999 SCT045 05/04 Q1014 RMK BKN SCT130 VIS MIN 9999 WIND THR11 28003KT WIND THR29 /////KT BLU

Zeit: 21:01 (20:01 UTC)

Prognose

Neuester Wetterbericht von vor 3 Stunden und 1 Minuten, um 17:00 UTC
Gültige Prognose vom 22 um 18 UTC bis 23 um 03 UTC
Wind 5 kt aus Nordwest
Sichtweite 10 km oder mehr
Aufgelockert bewölkt in der Höhe von 3000 ft
Zeitweise
vom 22 um 18 UTC bis 23 um 03 UTC
Sichtweite: 4000 m
feuchter Dunst

TAF: LIPC 221700Z 2218/2303 32005KT 9999 SCT030 TEMPO 2218/2303 4000 BR

Wetterbeobachtungen und Prognosen von mehr als 4000 Flughäfen (METAR und TAF Bericht).

Die verfügbaren Stationen werden durch gelbe und rote Markierungen auf der Karte dargestellt.

Führen Sie die Maus auf sie, um den Namen der Station zu sehen.

Darauf klicken, um die Beobachtung von Wetterbeobachtungen und Prognosen zu sehen.

Um die Karte zu ändern : klicken Sie auf den grünen Tasten mit einem schwarzen Kreuz Zum Vergrößern, auf den grünen Button mit einem Gedankenstrich zu verkleinern, oder auf die grünen Pfeile für benachbarte Karten.


METAR-TAF: